createdAt,value
2017-01-29T00:00:01.911Z,5.92
2017-01-29T00:01:13.319Z,5.92
2017-01-29T00:02:24.718Z,5.87
2017-01-29T00:03:36.333Z,5.88
2017-01-29T00:04:47.742Z,5.81
2017-01-29T00:05:59.202Z,5.81
2017-01-29T00:07:10.812Z,5.78
2017-01-29T00:08:22.228Z,5.72
2017-01-29T00:09:33.643Z,5.8
2017-01-29T00:10:45.056Z,5.73
2017-01-29T00:11:56.749Z,5.69
2017-01-29T00:13:08.158Z,5.55
2017-01-29T00:14:19.564Z,5.66
2017-01-29T00:15:30.975Z,5.63
2017-01-29T00:16:42.395Z,5.54
2017-01-29T00:17:53.862Z,5.63
2017-01-29T00:19:05.266Z,5.66
2017-01-29T00:20:16.671Z,5.54
2017-01-29T00:21:28.291Z,5.55
2017-01-29T00:22:39.693Z,5.62
2017-01-29T00:23:51.162Z,5.46
2017-01-29T00:25:02.570Z,5.46
2017-01-29T00:26:13.996Z,5.52
2017-01-29T00:27:25.408Z,5.41
2017-01-29T00:28:36.813Z,5.39
2017-01-29T00:29:48.274Z,5.41
2017-01-29T00:30:59.878Z,5.44
2017-01-29T00:32:11.291Z,5.36
2017-01-29T00:33:22.702Z,5.41
2017-01-29T00:34:34.113Z,5.46
2017-01-29T00:35:45.571Z,5.46
2017-01-29T00:36:57.186Z,5.55
2017-01-29T00:38:08.593Z,5.54
2017-01-29T00:39:20.004Z,5.52
2017-01-29T00:40:31.409Z,5.51
2017-01-29T00:41:43.070Z,5.45
2017-01-29T00:42:54.474Z,5.49
2017-01-29T00:44:05.890Z,5.55
2017-01-29T00:45:17.296Z,5.54
2017-01-29T00:46:28.909Z,5.48
2017-01-29T00:47:40.368Z,5.49
2017-01-29T00:48:51.776Z,5.51
2017-01-29T00:50:03.182Z,5.46
2017-01-29T00:51:14.586Z,5.54
2017-01-29T00:52:25.994Z,5.55
2017-01-29T00:53:37.446Z,5.55
2017-01-29T00:54:49.051Z,5.52
2017-01-29T00:56:00.457Z,5.52
2017-01-29T00:57:12.072Z,5.54
2017-01-29T00:58:23.484Z,5.57
2017-01-29T00:59:34.939Z,5.55
2017-01-29T01:00:46.350Z,5.55
2017-01-29T01:01:57.759Z,5.49
2017-01-29T01:03:09.166Z,5.59
2017-01-29T01:04:20.580Z,5.57
2017-01-29T01:05:32.238Z,5.51
2017-01-29T01:06:43.650Z,5.42
2017-01-29T01:07:55.058Z,5.44
2017-01-29T01:09:06.468Z,5.51
2017-01-29T01:10:17.877Z,5.51
2017-01-29T01:11:29.358Z,5.52
2017-01-29T01:12:40.763Z,5.45
2017-01-29T01:13:52.174Z,5.41
2017-01-29T01:15:03.580Z,5.39
2017-01-29T01:16:15.193Z,5.48
2017-01-29T01:17:26.652Z,5.45
2017-01-29T01:18:38.059Z,5.44
2017-01-29T01:19:49.466Z,5.42
2017-01-29T01:21:00.881Z,5.48
2017-01-29T01:22:12.489Z,5.41
2017-01-29T01:23:23.956Z,5.42
2017-01-29T01:24:35.368Z,5.42
2017-01-29T01:25:46.775Z,5.45
2017-01-29T01:26:58.386Z,5.45
2017-01-29T01:28:09.796Z,5.46
2017-01-29T01:29:21.250Z,5.44
2017-01-29T01:30:32.666Z,5.41
2017-01-29T01:31:44.091Z,5.45
2017-01-29T01:32:55.494Z,5.42
2017-01-29T01:34:06.925Z,5.36
2017-01-29T01:35:18.391Z,5.41
2017-01-29T01:36:29.797Z,5.41
2017-01-29T01:37:41.201Z,5.42
2017-01-29T01:38:52.607Z,5.44
2017-01-29T01:40:04.217Z,5.44
2017-01-29T01:41:15.880Z,5.42
2017-01-29T01:42:27.481Z,5.39
2017-01-29T01:43:38.896Z,5.36
2017-01-29T01:44:50.507Z,5.37
2017-01-29T01:46:01.918Z,5.34
2017-01-29T01:47:13.577Z,5.3
2017-01-29T01:48:25.189Z,5.34
2017-01-29T01:49:36.793Z,5.33
2017-01-29T01:50:48.197Z,5.36
2017-01-29T01:51:59.802Z,5.3
2017-01-29T01:53:11.251Z,5.34
2017-01-29T01:54:22.856Z,5.3
2017-01-29T01:55:34.264Z,5.21
2017-01-29T01:56:45.670Z,5.3
2017-01-29T01:57:57.080Z,5.31
2017-01-29T01:59:08.741Z,5.21
2017-01-29T02:00:20.146Z,5.31
2017-01-29T02:01:31.553Z,5.26
2017-01-29T02:02:42.964Z,5.2
2017-01-29T02:03:54.576Z,5.23
2017-01-29T02:05:06.034Z,5.15
2017-01-29T02:06:17.442Z,5.15
2017-01-29T02:07:28.853Z,5.21
2017-01-29T02:08:40.257Z,5.18
2017-01-29T02:09:51.865Z,5.16
2017-01-29T02:11:03.539Z,5.16
2017-01-29T02:12:15.147Z,5.1
2017-01-29T02:13:26.753Z,5.09
2017-01-29T02:14:38.163Z,5.09
2017-01-29T02:15:49.581Z,5.08
2017-01-29T02:17:01.092Z,5.03
2017-01-29T02:18:12.497Z,5
2017-01-29T02:19:23.914Z,5
2017-01-29T02:20:35.315Z,5
2017-01-29T02:21:46.717Z,5.03
2017-01-29T02:22:58.186Z,5.03
2017-01-29T02:24:09.625Z,4.97
2017-01-29T02:25:21.028Z,5.02
2017-01-29T02:26:32.437Z,5.08
2017-01-29T02:27:43.846Z,5.08
2017-01-29T02:28:55.328Z,4.98
2017-01-29T02:30:06.741Z,5
2017-01-29T02:31:18.149Z,5
2017-01-29T02:32:29.559Z,5.03
2017-01-29T02:33:40.963Z,5.08
2017-01-29T02:34:52.415Z,5.02
2017-01-29T02:36:03.820Z,5
2017-01-29T02:37:15.228Z,5.05
2017-01-29T02:38:26.649Z,5.03
2017-01-29T02:39:38.258Z,4.97
2017-01-29T02:40:49.748Z,4.9
2017-01-29T02:42:01.357Z,4.88
2017-01-29T02:43:12.765Z,4.98
2017-01-29T02:44:24.175Z,4.98
2017-01-29T02:45:35.586Z,4.98
2017-01-29T02:46:47.042Z,4.87
2017-01-29T02:47:58.451Z,5.02
2017-01-29T02:49:10.064Z,4.98
2017-01-29T02:50:21.476Z,4.95
2017-01-29T02:51:32.900Z,4.95
2017-01-29T02:52:44.362Z,4.85
2017-01-29T02:53:55.774Z,4.92
2017-01-29T02:55:07.180Z,4.9
2017-01-29T02:56:18.589Z,4.91
2017-01-29T02:57:30.190Z,5
2017-01-29T02:58:41.688Z,4.9
2017-01-29T02:59:53.099Z,5.02
2017-01-29T03:01:04.508Z,4.91
2017-01-29T03:02:15.930Z,4.91
2017-01-29T03:03:27.347Z,4.9
2017-01-29T03:04:38.804Z,4.97
2017-01-29T03:05:50.217Z,4.98
2017-01-29T03:07:01.621Z,4.98
2017-01-29T03:08:13.032Z,4.88
2017-01-29T03:09:24.452Z,4.85
2017-01-29T03:10:35.919Z,4.9
2017-01-29T03:11:47.528Z,4.92
2017-01-29T03:12:58.935Z,4.94
2017-01-29T03:14:10.549Z,4.88
2017-01-29T03:15:21.958Z,4.85
2017-01-29T03:16:33.421Z,4.79
2017-01-29T03:17:44.830Z,4.87
2017-01-29T03:18:56.243Z,4.88
2017-01-29T03:20:07.850Z,4.85
2017-01-29T03:21:19.263Z,4.88
2017-01-29T03:22:30.720Z,4.84
2017-01-29T03:23:42.119Z,4.87
2017-01-29T03:24:53.734Z,4.75
2017-01-29T03:26:05.140Z,4.72
2017-01-29T03:27:16.755Z,4.72
2017-01-29T03:28:28.209Z,4.69
2017-01-29T03:29:39.615Z,4.75
2017-01-29T03:30:51.030Z,4.69
2017-01-29T03:32:02.442Z,4.74
2017-01-29T03:33:13.848Z,4.74
2017-01-29T03:34:25.315Z,4.71
2017-01-29T03:35:36.726Z,4.66
2017-01-29T03:36:48.125Z,4.74
2017-01-29T03:37:59.532Z,4.72
2017-01-29T03:39:10.939Z,4.72
2017-01-29T03:40:22.388Z,4.69
2017-01-29T03:42:05.328Z,4.84
2017-01-29T03:43:16.947Z,4.78
2017-01-29T03:44:28.357Z,4.74
2017-01-29T03:45:40.017Z,4.71
2017-01-29T03:46:51.422Z,4.75
2017-01-29T03:48:02.834Z,4.75
2017-01-29T03:49:14.250Z,4.78
2017-01-29T03:50:25.654Z,4.76
2017-01-29T03:51:37.105Z,4.71
2017-01-29T03:52:48.518Z,4.66
2017-01-29T03:54:00.162Z,4.72
2017-01-29T03:55:11.565Z,4.58
2017-01-29T03:56:22.972Z,4.66
2017-01-29T03:57:34.631Z,4.58
2017-01-29T03:58:46.245Z,4.64
2017-01-29T03:59:57.656Z,4.6
2017-01-29T04:01:09.069Z,4.61
2017-01-29T04:02:20.473Z,4.64
2017-01-29T04:03:31.927Z,4.65
2017-01-29T04:04:43.334Z,4.65
2017-01-29T04:05:54.943Z,4.68
2017-01-29T04:07:06.352Z,4.66
2017-01-29T04:08:17.775Z,4.65
2017-01-29T04:09:29.252Z,4.58
2017-01-29T04:10:40.661Z,4.6
2017-01-29T04:11:52.070Z,4.58
2017-01-29T04:13:03.683Z,4.58
2017-01-29T04:14:15.287Z,4.58
2017-01-29T04:15:26.762Z,4.6
2017-01-29T04:16:38.373Z,4.69
2017-01-29T04:17:49.793Z,4.61
2017-01-29T04:19:01.199Z,4.58
2017-01-29T04:20:12.814Z,4.54
2017-01-29T04:21:24.269Z,4.56
2017-01-29T04:22:35.880Z,4.6
2017-01-29T04:23:47.292Z,4.53
2017-01-29T04:24:58.698Z,4.6
2017-01-29T04:26:10.102Z,4.48
2017-01-29T04:27:21.568Z,4.54
2017-01-29T04:28:32.970Z,4.57
2017-01-29T04:29:44.373Z,4.65
2017-01-29T04:30:55.991Z,4.48
2017-01-29T04:32:07.610Z,4.47
2017-01-29T04:33:19.262Z,4.53
2017-01-29T04:34:30.864Z,4.51
2017-01-29T04:35:42.277Z,4.46
2017-01-29T04:36:53.683Z,4.51
2017-01-29T04:38:05.285Z,4.51
2017-01-29T04:39:16.745Z,4.46
2017-01-29T04:40:28.159Z,4.48
2017-01-29T04:41:39.562Z,4.46
2017-01-29T04:42:50.980Z,4.39
2017-01-29T04:44:02.587Z,4.4
2017-01-29T04:45:14.051Z,4.39
2017-01-29T04:46:25.482Z,4.4
2017-01-29T04:47:36.888Z,4.32
2017-01-29T04:48:48.300Z,4.42
2017-01-29T04:49:59.705Z,4.39
2017-01-29T04:51:11.156Z,4.38
2017-01-29T04:52:22.563Z,4.35
2017-01-29T04:53:34.163Z,4.36
2017-01-29T04:54:45.575Z,4.28
2017-01-29T04:55:57.177Z,4.3
2017-01-29T04:57:08.630Z,4.29
2017-01-29T04:58:20.037Z,4.24
2017-01-29T04:59:31.658Z,4.28
2017-01-29T05:00:43.261Z,4.24
2017-01-29T05:01:54.866Z,4.26
2017-01-29T05:03:06.326Z,4.17
2017-01-29T05:04:17.740Z,4.22
2017-01-29T05:05:29.151Z,4.26
2017-01-29T05:06:40.588Z,4.21
2017-01-29T05:07:52.010Z,4.14
2017-01-29T05:09:03.463Z,4.2
2017-01-29T05:10:14.870Z,4.21
2017-01-29T05:11:26.477Z,4.18
2017-01-29T05:12:38.087Z,4.1
2017-01-29T05:13:49.501Z,4.14
2017-01-29T05:15:00.961Z,4.1
2017-01-29T05:16:12.372Z,4.04
2017-01-29T05:17:23.782Z,3.97
2017-01-29T05:18:35.191Z,4.04
2017-01-29T05:19:46.811Z,3.92
2017-01-29T05:20:58.309Z,3.99
2017-01-29T05:22:09.756Z,3.96
2017-01-29T05:23:21.166Z,4.04
2017-01-29T05:24:32.574Z,3.96
2017-01-29T05:25:44.016Z,3.97
2017-01-29T05:26:55.468Z,3.97
2017-01-29T05:28:06.874Z,3.96
2017-01-29T05:29:18.280Z,3.93
2017-01-29T05:30:29.691Z,3.9
2017-01-29T05:31:41.101Z,3.9
2017-01-29T05:32:52.759Z,3.93
2017-01-29T05:34:04.163Z,3.85
2017-01-29T05:35:15.555Z,3.84
2017-01-29T05:36:27.161Z,3.9
2017-01-29T05:37:38.769Z,3.85
2017-01-29T05:38:50.221Z,3.79
2017-01-29T05:40:01.632Z,3.81
2017-01-29T05:41:13.038Z,3.82
2017-01-29T05:42:24.842Z,3.79
2017-01-29T05:43:36.450Z,3.74
2017-01-29T05:44:47.940Z,3.74
2017-01-29T05:45:59.544Z,3.71
2017-01-29T05:47:11.353Z,3.67
2017-01-29T05:48:22.753Z,3.66
2017-01-29T05:49:34.373Z,3.69
2017-01-29T05:50:45.841Z,3.67
2017-01-29T05:51:57.248Z,3.71
2017-01-29T05:53:08.656Z,3.58
2017-01-29T05:54:20.269Z,3.64
2017-01-29T05:55:31.680Z,3.56
2017-01-29T05:56:43.162Z,3.57
2017-01-29T05:57:54.566Z,3.57
2017-01-29T05:59:05.966Z,3.57
2017-01-29T06:00:17.379Z,3.6
2017-01-29T06:01:28.991Z,3.57
2017-01-29T06:02:40.444Z,3.56
2017-01-29T06:03:51.851Z,3.45
2017-01-29T06:05:03.271Z,3.43
2017-01-29T06:06:14.676Z,3.4
2017-01-29T06:07:26.078Z,3.4
2017-01-29T06:08:37.534Z,3.29
2017-01-29T06:09:48.938Z,3.45
2017-01-29T06:11:00.586Z,3.51
2017-01-29T06:12:11.993Z,3.29
2017-01-29T06:13:23.402Z,3.45
2017-01-29T06:14:34.865Z,3.42
2017-01-29T06:15:46.278Z,3.39
2017-01-29T06:16:57.695Z,3.39
2017-01-29T06:18:09.107Z,3.39
2017-01-29T06:19:20.716Z,3.39
2017-01-29T06:20:32.193Z,3.4
2017-01-29T06:21:43.634Z,3.37
2017-01-29T06:22:55.249Z,3.4
2017-01-29T06:24:06.652Z,3.42
2017-01-29T06:25:18.055Z,3.37
2017-01-29T06:26:29.512Z,3.37
2017-01-29T06:27:40.921Z,3.4
2017-01-29T06:28:52.335Z,3.29
2017-01-29T06:30:03.738Z,3.32
2017-01-29T06:31:15.140Z,3.32
2017-01-29T06:32:26.592Z,3.27
2017-01-29T06:33:37.997Z,3.39
2017-01-29T06:34:49.398Z,3.4
2017-01-29T06:36:00.815Z,3.4
2017-01-29T06:37:12.219Z,3.42
2017-01-29T06:38:23.692Z,3.42
2017-01-29T06:39:35.097Z,3.3
2017-01-29T06:40:46.703Z,3.4
2017-01-29T06:41:58.114Z,3.26
2017-01-29T06:43:09.720Z,3.35
2017-01-29T06:44:21.180Z,3.45
2017-01-29T06:45:32.573Z,3.39
2017-01-29T06:46:44.177Z,3.35
2017-01-29T06:47:55.594Z,3.39
2017-01-29T06:49:07.007Z,3.42
2017-01-29T06:50:18.475Z,3.48
2017-01-29T06:51:29.880Z,3.49
2017-01-29T06:52:41.273Z,3.42
2017-01-29T06:53:52.682Z,3.4
2017-01-29T06:55:04.091Z,3.42
2017-01-29T06:56:15.538Z,3.42
2017-01-29T06:57:26.945Z,3.48
2017-01-29T06:58:38.748Z,3.49
2017-01-29T06:59:50.152Z,3.54
2017-01-29T07:01:01.762Z,3.53
2017-01-29T07:02:13.424Z,3.57
2017-01-29T07:03:25.031Z,3.56
2017-01-29T07:04:36.664Z,3.58
2017-01-29T07:05:48.072Z,3.58
2017-01-29T07:06:59.487Z,3.57
2017-01-29T07:08:10.941Z,3.56
2017-01-29T07:09:22.352Z,3.58
2017-01-29T07:10:33.760Z,3.6
2017-01-29T07:11:45.572Z,3.6
2017-01-29T07:12:56.973Z,3.56
2017-01-29T07:14:08.433Z,3.64
2017-01-29T07:15:19.834Z,3.63
2017-01-29T07:16:31.440Z,3.61
2017-01-29T07:17:42.851Z,3.67
2017-01-29T07:18:54.265Z,3.64
2017-01-29T07:20:05.722Z,3.56
2017-01-29T07:21:17.126Z,3.69
2017-01-29T07:22:28.530Z,3.67
2017-01-29T07:23:39.939Z,3.71
2017-01-29T07:24:51.348Z,3.74
2017-01-29T07:26:02.795Z,3.75
2017-01-29T07:27:14.197Z,3.85
2017-01-29T07:28:26.004Z,3.84
2017-01-29T07:29:37.410Z,3.81
2017-01-29T07:30:48.817Z,3.86
2017-01-29T07:32:00.273Z,3.92
2017-01-29T07:33:11.676Z,3.9
2017-01-29T07:34:23.083Z,3.96
2017-01-29T07:35:34.508Z,3.96
2017-01-29T07:36:46.147Z,4.07
2017-01-29T07:37:57.600Z,4.1
2017-01-29T07:39:09.013Z,4.12
2017-01-29T07:40:20.417Z,4.03
2017-01-29T07:41:31.822Z,4.12
2017-01-29T07:42:43.234Z,4.18
2017-01-29T07:43:54.891Z,4.2
2017-01-29T07:45:06.301Z,4.18
2017-01-29T07:46:17.718Z,4.26
2017-01-29T07:47:29.125Z,4.21
2017-01-29T07:48:40.536Z,4.22
2017-01-29T07:49:51.988Z,4.21
2017-01-29T07:51:03.400Z,4.2
2017-01-29T07:52:14.813Z,4.33
2017-01-29T07:53:26.221Z,4.24
2017-01-29T07:54:37.625Z,4.17
2017-01-29T07:55:49.080Z,4.22
2017-01-29T07:57:00.485Z,4.21
2017-01-29T07:58:11.887Z,4.2
2017-01-29T07:59:23.299Z,4.22
2017-01-29T08:00:34.698Z,4.2
2017-01-29T08:01:46.156Z,4.26
2017-01-29T08:02:57.560Z,4.28
2017-01-29T08:04:08.964Z,4.21
2017-01-29T08:05:20.583Z,4.2
2017-01-29T08:06:31.984Z,4.2
2017-01-29T08:07:43.649Z,4.2
2017-01-29T08:08:55.058Z,4.18
2017-01-29T08:10:06.692Z,4.21
2017-01-29T08:11:18.290Z,4.17
2017-01-29T08:12:29.699Z,4.26
2017-01-29T08:13:41.158Z,4.29
2017-01-29T08:14:52.570Z,4.39
2017-01-29T08:16:03.982Z,4.38
2017-01-29T08:17:15.816Z,4.3
2017-01-29T08:18:27.225Z,4.28
2017-01-29T08:19:38.686Z,4.32
2017-01-29T08:20:50.094Z,4.42
2017-01-29T08:22:01.703Z,4.38
2017-01-29T08:23:13.108Z,4.39
2017-01-29T08:24:24.509Z,4.46
2017-01-29T08:25:36.166Z,4.42
2017-01-29T08:26:47.580Z,4.42
2017-01-29T08:27:58.993Z,4.4
2017-01-29T08:29:10.395Z,4.42
2017-01-29T08:30:21.815Z,4.36
2017-01-29T08:31:33.277Z,4.42
2017-01-29T08:32:44.680Z,4.42
2017-01-29T08:33:56.284Z,4.39
2017-01-29T08:35:07.685Z,4.39
2017-01-29T08:36:19.104Z,4.44
2017-01-29T08:37:30.752Z,4.38
2017-01-29T08:38:42.354Z,4.4
2017-01-29T08:39:53.752Z,4.42
2017-01-29T08:41:05.160Z,4.42
2017-01-29T08:42:16.571Z,4.48
2017-01-29T08:43:28.020Z,4.46
2017-01-29T08:44:39.443Z,4.47
2017-01-29T08:45:50.867Z,4.54
2017-01-29T08:47:02.277Z,4.53
2017-01-29T08:48:13.682Z,4.46
2017-01-29T08:49:25.151Z,4.48
2017-01-29T08:50:36.546Z,4.54
2017-01-29T08:51:47.955Z,4.53
2017-01-29T08:52:59.355Z,4.46
2017-01-29T08:54:10.765Z,4.47
2017-01-29T08:55:22.215Z,4.53
2017-01-29T08:56:33.621Z,4.53
2017-01-29T08:57:45.028Z,4.53
2017-01-29T08:58:56.432Z,4.54
2017-01-29T09:00:08.045Z,4.48
2017-01-29T09:01:19.494Z,4.5
2017-01-29T09:02:31.097Z,4.48
2017-01-29T09:03:42.502Z,4.44
2017-01-29T09:04:53.915Z,4.4
2017-01-29T09:06:05.332Z,4.46
2017-01-29T09:07:16.990Z,4.38
2017-01-29T09:08:28.392Z,4.39
2017-01-29T09:09:39.807Z,4.35
2017-01-29T09:10:51.205Z,4.44
2017-01-29T09:12:02.808Z,4.4
2017-01-29T09:13:14.363Z,4.38
2017-01-29T09:14:25.774Z,4.3
2017-01-29T09:15:37.171Z,4.29
2017-01-29T09:16:48.586Z,4.38
2017-01-29T09:17:59.996Z,4.38
2017-01-29T09:19:11.458Z,4.39
2017-01-29T09:20:22.863Z,4.42
2017-01-29T09:21:34.274Z,4.42
2017-01-29T09:22:45.672Z,4.42
2017-01-29T09:23:57.085Z,4.4
2017-01-29T09:25:08.741Z,4.46
2017-01-29T09:26:20.357Z,4.48
2017-01-29T09:27:31.764Z,4.44
2017-01-29T09:28:43.377Z,4.38
2017-01-29T09:29:54.989Z,4.48
2017-01-29T09:31:06.449Z,4.5
2017-01-29T09:32:17.841Z,4.47
2017-01-29T09:33:29.250Z,4.44
2017-01-29T09:34:40.681Z,4.48
2017-01-29T09:35:52.093Z,4.48
2017-01-29T09:37:03.550Z,4.48
2017-01-29T09:38:14.954Z,4.6
2017-01-29T09:39:26.367Z,4.56
2017-01-29T09:40:37.762Z,4.61
2017-01-29T09:41:49.169Z,4.56
2017-01-29T09:43:00.643Z,4.58
2017-01-29T09:44:12.052Z,4.61
2017-01-29T09:45:23.465Z,4.6
2017-01-29T09:46:34.878Z,4.6
2017-01-29T09:47:46.288Z,4.6
2017-01-29T09:48:57.951Z,4.56
2017-01-29T09:50:09.359Z,4.61
2017-01-29T09:51:20.775Z,4.58
2017-01-29T09:52:32.180Z,4.61
2017-01-29T09:53:43.582Z,4.64
2017-01-29T09:54:55.041Z,4.68
2017-01-29T09:56:06.450Z,4.75
2017-01-29T09:57:18.054Z,4.75
2017-01-29T09:58:29.669Z,4.85
2017-01-29T09:59:41.071Z,4.76
2017-01-29T10:00:52.530Z,4.76
2017-01-29T10:02:03.946Z,4.78
2017-01-29T10:03:15.347Z,4.76
2017-01-29T10:04:27.161Z,4.83
2017-01-29T10:05:38.768Z,4.88
2017-01-29T10:06:50.262Z,4.84
2017-01-29T10:08:01.678Z,4.87
2017-01-29T10:09:13.084Z,4.87
2017-01-29T10:10:24.487Z,4.88
2017-01-29T10:11:35.884Z,4.85
2017-01-29T10:12:47.343Z,4.85
2017-01-29T10:13:58.955Z,4.79
2017-01-29T10:15:10.565Z,4.83
2017-01-29T10:16:21.967Z,4.79
2017-01-29T10:17:33.369Z,4.76
2017-01-29T10:18:44.827Z,4.87
2017-01-29T10:19:56.438Z,4.87
2017-01-29T10:21:07.850Z,4.79
2017-01-29T10:22:19.248Z,4.87
2017-01-29T10:23:30.661Z,4.91
2017-01-29T10:24:42.118Z,4.84
2017-01-29T10:25:53.530Z,4.94
2017-01-29T10:27:04.967Z,4.84
2017-01-29T10:28:16.377Z,4.97
2017-01-29T10:29:27.792Z,4.92
2017-01-29T10:30:39.260Z,4.97
2017-01-29T10:31:50.667Z,4.97
2017-01-29T10:33:02.083Z,4.94
2017-01-29T10:34:13.492Z,4.98
2017-01-29T10:35:24.898Z,4.92
2017-01-29T10:36:36.350Z,5.03
2017-01-29T10:37:47.755Z,5.02
2017-01-29T10:38:59.192Z,5.03
2017-01-29T10:40:10.600Z,5.02
2017-01-29T10:41:22.002Z,5.1
2017-01-29T10:42:33.458Z,5.12
2017-01-29T10:43:44.866Z,5.18
2017-01-29T10:44:56.275Z,5.18
2017-01-29T10:46:07.686Z,5.24
2017-01-29T10:47:19.095Z,5.3
2017-01-29T10:48:30.560Z,5.33
2017-01-29T10:49:41.982Z,5.34
2017-01-29T10:50:53.384Z,5.41
2017-01-29T10:52:05.193Z,5.41
2017-01-29T10:53:16.597Z,5.41
2017-01-29T10:54:28.053Z,5.49
2017-01-29T10:55:39.466Z,5.46
2017-01-29T10:56:50.865Z,5.41
2017-01-29T10:58:02.478Z,5.44
2017-01-29T10:59:13.889Z,5.51
2017-01-29T11:00:25.342Z,5.49
2017-01-29T11:01:36.748Z,5.51
2017-01-29T11:02:48.157Z,5.49
2017-01-29T11:03:59.571Z,5.46
2017-01-29T11:05:10.976Z,5.52
2017-01-29T11:06:22.628Z,5.45
2017-01-29T11:07:34.033Z,5.57
2017-01-29T11:08:45.641Z,5.59
2017-01-29T11:09:57.244Z,5.6
2017-01-29T11:11:08.848Z,5.67
2017-01-29T11:12:20.323Z,5.62
2017-01-29T11:13:31.726Z,5.69
2017-01-29T11:14:43.141Z,5.55
2017-01-29T11:15:54.548Z,5.63
2017-01-29T11:17:05.960Z,5.69
2017-01-29T11:18:17.414Z,5.66
2017-01-29T11:19:28.817Z,5.59
2017-01-29T11:20:40.232Z,5.6
2017-01-29T11:21:51.846Z,5.62
2017-01-29T11:23:03.460Z,5.55
2017-01-29T11:24:14.917Z,5.57
2017-01-29T11:25:26.327Z,5.57
2017-01-29T11:26:37.731Z,5.54
2017-01-29T11:27:49.139Z,5.52
2017-01-29T11:29:00.751Z,5.66
2017-01-29T11:30:12.201Z,5.57
2017-01-29T11:31:23.806Z,5.6
2017-01-29T11:32:35.213Z,5.77
2017-01-29T11:33:46.827Z,5.67
2017-01-29T11:34:58.230Z,5.64
2017-01-29T11:36:09.899Z,5.73
2017-01-29T11:37:21.516Z,5.75
2017-01-29T11:38:32.921Z,5.69
2017-01-29T11:39:44.337Z,5.7
2017-01-29T11:40:55.950Z,5.77
2017-01-29T11:42:07.426Z,5.87
2017-01-29T11:43:18.830Z,5.87
2017-01-29T11:44:30.438Z,5.89
2017-01-29T11:45:41.848Z,5.91
2017-01-29T11:46:53.252Z,5.89
2017-01-29T11:48:04.714Z,5.95
2017-01-29T11:49:16.127Z,6.02
2017-01-29T11:50:27.545Z,6.09
2017-01-29T11:51:38.954Z,6.13
2017-01-29T11:52:50.761Z,6.25
2017-01-29T11:54:02.223Z,6.21
2017-01-29T11:55:13.627Z,6.36
2017-01-29T11:56:25.035Z,6.25
2017-01-29T11:57:36.442Z,6.33
2017-01-29T11:58:47.852Z,6.36
2017-01-29T11:59:59.316Z,6.34
2017-01-29T12:01:10.949Z,6.31
2017-01-29T12:02:22.356Z,6.33
2017-01-29T12:03:33.768Z,6.29
2017-01-29T12:04:45.175Z,6.39
2017-01-29T12:05:56.629Z,6.36
2017-01-29T12:07:08.038Z,6.39
2017-01-29T12:08:19.461Z,6.42
2017-01-29T12:09:30.873Z,6.42
2017-01-29T12:10:42.490Z,6.44
2017-01-29T12:11:53.948Z,6.46
2017-01-29T12:13:05.358Z,6.49
2017-01-29T12:14:16.775Z,6.43
2017-01-29T12:15:28.189Z,6.46
2017-01-29T12:16:39.606Z,6.43
2017-01-29T12:17:51.057Z,6.4
2017-01-29T12:19:02.666Z,6.42
2017-01-29T12:20:14.078Z,6.4
2017-01-29T12:21:25.498Z,6.4
2017-01-29T12:22:36.912Z,6.51
2017-01-29T12:23:48.374Z,6.49
2017-01-29T12:24:59.810Z,6.54
2017-01-29T12:26:11.223Z,6.62
2017-01-29T12:27:22.628Z,6.58
2017-01-29T12:28:34.244Z,6.51
2017-01-29T12:29:45.710Z,6.62
2017-01-29T12:30:57.126Z,6.68
2017-01-29T12:32:08.548Z,6.64
2017-01-29T12:33:19.968Z,6.6
2017-01-29T12:34:31.366Z,6.64
2017-01-29T12:35:42.829Z,6.6
2017-01-29T12:36:54.234Z,6.68
2017-01-29T12:38:05.642Z,6.73
2017-01-29T12:39:17.089Z,6.67
2017-01-29T12:40:28.498Z,6.68
2017-01-29T12:41:39.968Z,6.57
2017-01-29T12:42:51.383Z,6.65
2017-01-29T12:44:02.794Z,6.64
2017-01-29T12:45:14.203Z,6.62
2017-01-29T12:46:25.619Z,6.58
2017-01-29T12:47:37.088Z,6.62
2017-01-29T12:48:48.503Z,6.6
2017-01-29T12:49:59.911Z,6.64
2017-01-29T12:51:11.322Z,6.68
2017-01-29T12:52:22.740Z,6.64
2017-01-29T12:53:34.202Z,6.65
2017-01-29T12:54:45.617Z,6.64
2017-01-29T12:55:57.028Z,6.62
2017-01-29T12:57:08.646Z,6.62
2017-01-29T12:58:20.056Z,6.72
2017-01-29T12:59:31.516Z,6.61
2017-01-29T13:00:42.929Z,6.62
2017-01-29T13:01:54.352Z,6.68
2017-01-29T13:03:05.765Z,6.61
2017-01-29T13:04:17.177Z,6.73
2017-01-29T13:05:28.636Z,6.61
2017-01-29T13:06:40.058Z,6.68
2017-01-29T13:07:51.471Z,6.67
2017-01-29T13:09:02.887Z,6.67
2017-01-29T13:10:14.305Z,6.61
2017-01-29T13:11:26.196Z,6.61
2017-01-29T13:12:37.611Z,6.7
2017-01-29T13:13:49.027Z,6.62
2017-01-29T13:15:00.440Z,6.61
2017-01-29T13:16:11.850Z,6.61
2017-01-29T13:17:23.324Z,6.7
2017-01-29T13:18:34.736Z,6.6
2017-01-29T13:19:46.141Z,6.68
2017-01-29T13:20:57.554Z,6.7
2017-01-29T13:22:08.959Z,6.75
2017-01-29T13:23:20.418Z,6.86
2017-01-29T13:24:31.819Z,6.82
2017-01-29T13:25:43.433Z,6.83
2017-01-29T13:26:54.844Z,6.95
2017-01-29T13:28:06.250Z,6.94
2017-01-29T13:29:17.913Z,6.95
2017-01-29T13:30:29.340Z,6.95
2017-01-29T13:31:40.744Z,6.94
2017-01-29T13:32:52.348Z,7.09
2017-01-29T13:34:03.761Z,7.05
2017-01-29T13:35:15.436Z,7.08
2017-01-29T13:36:26.844Z,7
2017-01-29T13:37:38.253Z,6.98
2017-01-29T13:38:49.665Z,7
2017-01-29T13:40:01.073Z,6.91
2017-01-29T13:41:12.533Z,6.94
2017-01-29T13:42:23.945Z,6.93
2017-01-29T13:43:35.356Z,6.88
2017-01-29T13:44:46.778Z,6.97
2017-01-29T13:45:58.185Z,6.97
2017-01-29T13:47:09.859Z,7.03
2017-01-29T13:48:21.272Z,6.98
2017-01-29T13:49:32.888Z,6.95
2017-01-29T13:50:44.319Z,6.95
2017-01-29T13:51:55.736Z,7.01
2017-01-29T13:53:07.206Z,6.91
2017-01-29T13:54:18.617Z,7.01
2017-01-29T13:55:30.238Z,6.97
2017-01-29T13:56:41.875Z,7
2017-01-29T13:57:53.307Z,7
2017-01-29T13:59:04.964Z,6.98
2017-01-29T14:00:16.368Z,6.95
2017-01-29T14:01:27.786Z,7.09
2017-01-29T14:02:39.193Z,7
2017-01-29T14:03:50.610Z,7.12
2017-01-29T14:05:02.069Z,7.23
2017-01-29T14:06:13.474Z,7.41
2017-01-29T14:07:24.881Z,7.58
2017-01-29T14:08:36.499Z,7.74
2017-01-29T14:09:47.902Z,7.73
2017-01-29T14:10:59.362Z,7.78
2017-01-29T14:12:10.768Z,7.82
2017-01-29T14:13:22.171Z,7.78
2017-01-29T14:14:33.586Z,7.8
2017-01-29T14:15:45.002Z,7.73
2017-01-29T14:16:56.465Z,7.74
2017-01-29T14:18:07.884Z,7.74
2017-01-29T14:19:19.296Z,7.75
2017-01-29T14:20:30.703Z,7.73
2017-01-29T14:21:42.111Z,7.59
2017-01-29T14:22:53.577Z,7.56
2017-01-29T14:24:04.995Z,7.58
2017-01-29T14:25:16.404Z,7.54
2017-01-29T14:26:27.814Z,7.55
2017-01-29T14:27:39.227Z,7.55
2017-01-29T14:28:50.695Z,7.48
2017-01-29T14:30:02.111Z,7.54
2017-01-29T14:31:13.723Z,7.54
2017-01-29T14:32:25.132Z,7.49
2017-01-29T14:33:36.545Z,7.63
2017-01-29T14:34:48.198Z,7.54
2017-01-29T14:35:59.621Z,7.51
2017-01-29T14:37:11.035Z,7.67
2017-01-29T14:38:22.445Z,7.54
2017-01-29T14:39:33.869Z,7.54
2017-01-29T14:40:45.536Z,7.54
2017-01-29T14:41:56.947Z,7.47
2017-01-29T14:43:08.360Z,7.4
2017-01-29T14:44:19.785Z,7.47
2017-01-29T14:45:31.390Z,7.36
2017-01-29T14:46:42.844Z,7.37
2017-01-29T14:47:54.249Z,7.41
2017-01-29T14:49:05.653Z,7.37
2017-01-29T14:50:17.056Z,7.41
2017-01-29T14:51:28.465Z,7.29
2017-01-29T14:52:39.926Z,7.36
2017-01-29T14:53:51.343Z,7.19
2017-01-29T14:55:02.758Z,7.3
2017-01-29T14:56:14.169Z,7.22
2017-01-29T14:57:25.609Z,7.23
2017-01-29T14:58:37.085Z,7.18
2017-01-29T14:59:48.491Z,7.19
2017-01-29T15:00:59.899Z,7.22
2017-01-29T15:02:11.315Z,7.19
2017-01-29T15:03:22.713Z,7.19
2017-01-29T15:04:34.162Z,7.19
2017-01-29T15:05:45.575Z,7.03
2017-01-29T15:06:56.980Z,7.03
2017-01-29T15:08:08.401Z,7.04
2017-01-29T15:09:19.803Z,6.98
2017-01-29T15:10:31.458Z,6.94
2017-01-29T15:11:42.862Z,6.91
2017-01-29T15:12:54.266Z,6.91
2017-01-29T15:14:05.685Z,6.85
2017-01-29T15:15:17.296Z,6.86
2017-01-29T15:16:28.955Z,6.95
2017-01-29T15:17:40.369Z,6.91
2017-01-29T15:18:51.986Z,6.9
2017-01-29T15:20:03.399Z,6.85
2017-01-29T15:21:14.814Z,6.97
2017-01-29T15:22:26.484Z,6.93
2017-01-29T15:23:37.907Z,6.97
2017-01-29T15:24:49.307Z,6.97
2017-01-29T15:26:00.921Z,7.03
2017-01-29T15:27:12.336Z,7
2017-01-29T15:28:23.795Z,7.08
2017-01-29T15:29:35.207Z,7.03
2017-01-29T15:30:46.611Z,6.97
2017-01-29T15:31:58.024Z,6.98
2017-01-29T15:33:09.442Z,6.93
2017-01-29T15:34:21.112Z,6.93
2017-01-29T15:35:32.515Z,6.94
2017-01-29T15:36:43.931Z,6.85
2017-01-29T15:37:55.540Z,6.79
2017-01-29T15:39:06.962Z,6.82
2017-01-29T15:40:18.624Z,6.8
2017-01-29T15:41:30.067Z,6.75
2017-01-29T15:42:41.486Z,6.88
2017-01-29T15:43:52.889Z,6.78
2017-01-29T15:45:04.307Z,6.65
2017-01-29T15:46:15.777Z,6.62
2017-01-29T15:47:27.185Z,6.6
2017-01-29T15:48:38.597Z,6.61
2017-01-29T15:49:50.004Z,6.55
2017-01-29T15:51:01.417Z,6.55
2017-01-29T15:52:12.876Z,6.54
2017-01-29T15:53:24.290Z,6.55
2017-01-29T15:54:35.704Z,6.51
2017-01-29T15:55:47.119Z,6.43